Time;durP1;ratioP1;P1;durP2;ratioP2;P2;SDS_P1;SDS_P2;PMS_P1;PMS_P2;Temp;Humidity;BMP_temperature;BMP_pressure;BME280_temperature;BME280_humidity;BME280_pressure;Samples;Min_cycle;Max_cycle;Signal;HPM_P1;HPM_P2
2022/03/22 00:00:24;;;;;;;21.17;9.93;;;;;0.80;97741.00;;;;8415467;28;20227;-71
2022/03/22 00:04:29;;;;;;;17.40;8.60;;;;;1.10;97742.00;;;;8415377;28;20257;-71
2022/03/22 00:08:32;;;;;;;22.00;9.97;;;;;1.30;97746.00;;;;8420529;28;20227;-72
2022/03/22 00:12:36;;;;;;;24.37;11.33;;;;;1.30;97739.00;;;;8414193;28;20288;-71
2022/03/22 00:16:39;;;;;;;26.03;11.50;;;;;1.30;97749.00;;;;8406907;28;20223;-72
2022/03/22 00:21:05;;;;;;;23.73;10.53;;;;;1.30;97744.00;;;;8415445;28;20266;-71
2022/03/22 00:25:10;;;;;;;29.23;12.07;;;;;1.20;97748.00;;;;8414582;28;20311;-71
2022/03/22 00:29:13;;;;;;;24.10;11.30;;;;;1.00;97747.00;;;;8411204;28;20231;-71
2022/03/22 00:33:16;;;;;;;27.43;12.20;;;;;0.80;97750.00;;;;8413548;28;20719;-71
2022/03/22 00:37:20;;;;;;;25.57;11.57;;;;;0.60;97753.00;;;;8414336;28;20701;-70
2022/03/22 00:41:23;;;;;;;24.33;11.37;;;;;0.50;97754.00;;;;8414148;28;20230;-70
2022/03/22 00:45:28;;;;;;;25.87;11.17;;;;;0.40;97741.00;;;;8413872;28;20257;-71
2022/03/22 00:49:33;;;;;;;23.70;10.33;;;;;0.40;97741.00;;;;8414017;28;20257;-69
2022/03/22 00:53:39;;;;;;;21.90;10.10;;;;;0.50;97746.00;;;;8415755;28;20854;-71
2022/03/22 00:57:44;;;;;;;21.77;9.50;;;;;0.60;97741.00;;;;8406030;28;20231;-73
2022/03/22 01:01:46;;;;;;;22.13;9.87;;;;;0.70;97751.00;;;;8413597;28;20242;-70
2022/03/22 01:05:50;;;;;;;20.07;9.80;;;;;0.70;97746.00;;;;8414028;28;20222;-72
2022/03/22 01:09:55;;;;;;;17.60;8.97;;;;;0.70;97744.00;;;;8413397;28;20226;-72
2022/03/22 01:13:58;;;;;;;18.73;9.17;;;;;0.70;97747.00;;;;8414488;28;20245;-73
2022/03/22 01:18:05;;;;;;;21.60;9.07;;;;;0.80;97729.00;;;;8413453;28;20236;-72
2022/03/22 01:22:08;;;;;;;17.87;8.53;;;;;1.20;97744.00;;;;8412930;28;20409;-70
2022/03/22 01:26:12;;;;;;;14.60;8.20;;;;;1.70;97747.00;;;;8412928;28;20292;-72
2022/03/22 01:30:19;;;;;;;13.90;7.57;;;;;2.10;97745.00;;;;8405462;28;20231;-72
2022/03/22 01:34:23;;;;;;;20.87;8.17;;;;;2.20;97737.00;;;;8411221;28;20386;-71
2022/03/22 01:38:26;;;;;;;15.10;7.77;;;;;2.40;97731.00;;;;8405554;28;20546;-71
2022/03/22 01:42:30;;;;;;;17.40;7.93;;;;;2.70;97724.00;;;;8411968;28;20242;-72
2022/03/22 01:46:36;;;;;;;19.20;8.63;;;;;2.90;97729.00;;;;8411531;28;20219;-72
2022/03/22 01:50:39;;;;;;;16.33;8.17;;;;;3.00;97718.00;;;;8412673;28;20231;-74
2022/03/22 01:54:42;;;;;;;18.73;8.87;;;;;3.10;97726.00;;;;8413711;28;20221;-75
2022/03/22 01:58:47;;;;;;;23.43;8.00;;;;;3.20;97721.00;;;;8413698;28;20273;-72
2022/03/22 02:07:15;;;;;;;19.03;8.20;;;;;3.20;97709.00;;;;8406975;28;20234;-71
2022/03/22 02:11:18;;;;;;;14.67;8.23;;;;;3.20;97706.00;;;;8412920;28;20235;-71
2022/03/22 02:15:23;;;;;;;16.37;7.80;;;;;3.20;97703.00;;;;8412891;28;20829;-72
2022/03/22 02:19:26;;;;;;;15.97;8.37;;;;;3.20;97705.00;;;;8404770;28;20230;-74
2022/03/22 02:23:45;;;;;;;15.10;8.10;;;;;3.10;97704.00;;;;8413174;28;20234;-69
2022/03/22 02:27:52;;;;;;;17.20;7.83;;;;;3.10;97705.00;;;;8411196;28;20219;-73
2022/03/22 02:31:55;;;;;;;20.80;7.90;;;;;3.00;97703.00;;;;8413107;28;20230;-73
2022/03/22 02:35:57;;;;;;;11.93;7.27;;;;;3.00;97696.00;;;;8416643;28;20230;-72
2022/03/22 02:40:02;;;;;;;15.17;8.73;;;;;2.90;97696.00;;;;8405805;28;20228;-73
2022/03/22 02:44:05;;;;;;;20.40;7.73;;;;;2.80;97705.00;;;;8413824;28;20252;-72
2022/03/22 02:48:10;;;;;;;18.47;7.37;;;;;2.80;97704.00;;;;8413014;28;20225;-71
2022/03/22 02:52:13;;;;;;;18.13;8.00;;;;;2.70;97703.00;;;;8405566;28;20231;-74
2022/03/22 02:56:19;;;;;;;18.73;8.23;;;;;2.70;97705.00;;;;8405391;28;20688;-72
2022/03/22 03:04:28;;;;;;;18.40;8.37;;;;;2.60;97714.00;;;;8392325;22;20228;-72
2022/03/22 03:08:31;;;;;;;13.43;7.17;;;;;2.50;97708.00;;;;8373874;28;20247;-70
2022/03/22 03:12:36;;;;;;;20.27;8.20;;;;;2.40;97697.00;;;;8366003;28;20225;-72
2022/03/22 03:16:39;;;;;;;15.87;7.90;;;;;2.40;97702.00;;;;8373727;28;20231;-72
2022/03/22 03:20:42;;;;;;;14.43;7.60;;;;;2.50;97709.00;;;;8379028;28;20298;-73
2022/03/22 03:24:45;;;;;;;12.07;7.37;;;;;2.50;97717.00;;;;8375220;28;20251;-70
2022/03/22 03:28:50;;;;;;;13.40;7.73;;;;;2.50;97707.00;;;;8374810;28;20231;-72
2022/03/22 03:32:52;;;;;;;17.73;8.00;;;;;2.50;97714.00;;;;8374689;28;21046;-76
2022/03/22 03:36:55;;;;;;;17.93;7.90;;;;;2.60;97725.00;;;;8375606;28;20584;-71
2022/03/22 03:49:42;;;;;;;18.30;7.47;;;;;2.70;97724.00;;;;8365474;28;20220;-72
2022/03/22 03:53:45;;;;;;;15.97;7.60;;;;;2.70;97727.00;;;;8370944;28;20243;-71
2022/03/22 03:57:49;;;;;;;12.63;6.50;;;;;2.60;97727.00;;;;8373761;28;20580;-70
2022/03/22 04:01:54;;;;;;;20.20;8.57;;;;;2.50;97722.00;;;;8365330;28;20878;-73
2022/03/22 04:05:57;;;;;;;17.87;8.43;;;;;2.50;97708.00;;;;8375899;28;20224;-70
2022/03/22 04:10:00;;;;;;;19.43;8.40;;;;;2.40;97714.00;;;;8373623;28;20227;-71
2022/03/22 04:14:03;;;;;;;20.10;9.10;;;;;2.20;97715.00;;;;8369627;28;20228;-69
2022/03/22 04:18:07;;;;;;;18.40;8.93;;;;;2.10;97724.00;;;;8377679;28;20225;-68
2022/03/22 04:22:10;;;;;;;18.13;8.00;;;;;2.00;97713.00;;;;8376375;28;20233;-73
2022/03/22 04:26:13;;;;;;;14.83;7.60;;;;;2.00;97714.00;;;;8370412;28;20235;-74
2022/03/22 04:34:39;;;;;;;18.97;9.00;;;;;2.00;97721.00;;;;8376758;28;21800;-72
2022/03/22 04:38:42;;;;;;;14.73;7.47;;;;;2.00;97722.00;;;;8374622;28;20250;-74
2022/03/22 04:42:45;;;;;;;18.23;7.50;;;;;2.00;97718.00;;;;8371839;28;20704;-73
2022/03/22 04:46:48;;;;;;;22.20;9.23;;;;;2.00;97717.00;;;;8371992;28;20571;-79
2022/03/22 04:56:43;;;;;;;15.53;7.70;;;;;1.90;97713.00;;;;8374330;28;22859;-74
2022/03/22 04:59:36;;;;;;;15.30;7.33;;;;;1.80;97727.00;;;;8369087;28;20230;-77
2022/03/22 05:03:39;;;;;;;15.77;8.50;;;;;1.80;97727.00;;;;8367700;28;20228;-72
2022/03/22 05:07:43;;;;;;;18.70;8.77;;;;;1.80;97733.00;;;;8372344;28;20227;-73
2022/03/22 05:11:46;;;;;;;17.67;8.20;;;;;1.80;97737.00;;;;8371668;28;20227;-76
2022/03/22 05:15:50;;;;;;;13.97;7.83;;;;;1.80;97739.00;;;;8365380;28;20224;-77
2022/03/22 05:19:53;;;;;;;15.80;8.47;;;;;1.80;97742.00;;;;8364758;28;20220;-84
2022/03/22 05:23:57;;;;;;;18.17;8.50;;;;;1.70;97746.00;;;;8377812;28;20230;-77
2022/03/22 05:28:02;;;;;;;17.40;8.20;;;;;1.60;97747.00;;;;8379880;28;20227;-78
2022/03/22 05:32:06;;;;;;;17.87;9.37;;;;;1.60;97746.00;;;;8381569;28;20216;-82
2022/03/22 05:36:09;;;;;;;18.17;8.90;;;;;1.50;97742.00;;;;8373034;28;20647;-80
2022/03/22 05:40:16;;;;;;;14.77;7.70;;;;;1.50;97758.00;;;;8374877;28;20644;-81
2022/03/22 05:44:21;;;;;;;16.90;7.70;;;;;1.60;97749.00;;;;8374335;28;20263;-77
2022/03/22 05:48:26;;;;;;;16.93;7.47;;;;;1.60;97757.00;;;;8378523;28;20212;-83
2022/03/22 05:52:29;;;;;;;19.93;7.53;;;;;1.80;97765.00;;;;8378179;28;20944;-78
2022/03/22 05:56:33;;;;;;;15.57;8.00;;;;;1.90;97754.00;;;;8380305;28;20231;-79
2022/03/22 06:00:36;;;;;;;13.83;6.73;;;;;2.10;97769.00;;;;8372110;28;21096;-75
2022/03/22 06:04:39;;;;;;;17.93;8.47;;;;;2.20;97772.00;;;;8382407;28;20631;-74
2022/03/22 06:08:42;;;;;;;25.13;8.87;;;;;2.30;97765.00;;;;8369722;28;20269;-75
2022/03/22 06:12:48;;;;;;;17.40;7.70;;;;;2.40;97768.00;;;;8371215;28;20597;-78
2022/03/22 06:16:51;;;;;;;20.90;8.67;;;;;2.50;97774.00;;;;8382211;28;20231;-76
2022/03/22 06:20:55;;;;;;;13.90;7.67;;;;;2.70;97761.00;;;;8373939;28;20769;-82
2022/03/22 06:24:58;;;;;;;20.63;7.30;;;;;2.80;97768.00;;;;8375634;28;20315;-79
2022/03/22 06:29:02;;;;;;;11.67;6.57;;;;;2.90;97773.00;;;;8370198;28;20815;-78
2022/03/22 06:33:11;;;;;;;17.60;7.60;;;;;3.00;97775.00;;;;8375781;28;20232;-81
2022/03/22 06:37:14;;;;;;;120.40;13.60;;;;;3.20;97776.00;;;;8378843;28;20578;-78
2022/03/22 06:41:17;;;;;;;15.40;7.77;;;;;3.30;97779.00;;;;8380048;28;20227;-80
2022/03/22 06:45:22;;;;;;;16.60;8.20;;;;;3.40;97785.00;;;;8369525;28;20236;-76
2022/03/22 06:49:25;;;;;;;14.17;6.37;;;;;3.50;97792.00;;;;8366925;28;20227;-79
2022/03/22 06:53:27;;;;;;;15.30;7.17;;;;;3.60;97791.00;;;;8372468;28;20630;-78
2022/03/22 06:57:31;;;;;;;17.10;7.80;;;;;3.80;97792.00;;;;8377838;28;20278;-72
2022/03/22 07:01:36;;;;;;;16.97;7.80;;;;;3.80;97793.00;;;;8377595;28;20310;-75
2022/03/22 07:05:41;;;;;;;18.67;7.67;;;;;4.00;97794.00;;;;8382561;28;20236;-78
2022/03/22 07:09:43;;;;;;;17.47;8.43;;;;;4.20;97787.00;;;;8376803;28;20228;-68
2022/03/22 07:13:46;;;;;;;17.70;8.10;;;;;4.40;97801.00;;;;8384013;28;20237;-63
2022/03/22 07:17:54;;;;;;;17.17;7.67;;;;;4.50;97804.00;;;;8367592;28;20227;-63
2022/03/22 07:21:57;;;;;;;19.00;8.60;;;;;4.60;97800.00;;;;8373139;28;20775;-63
2022/03/22 07:26:01;;;;;;;13.97;8.10;;;;;4.70;97791.00;;;;8382067;28;20231;-75
2022/03/22 07:30:04;;;;;;;16.47;8.10;;;;;4.80;97794.00;;;;8371575;28;20224;-72
2022/03/22 07:34:10;;;;;;;15.17;7.90;;;;;4.90;97803.00;;;;8377155;28;20664;-72
2022/03/22 07:38:13;;;;;;;16.40;8.40;;;;;5.00;97806.00;;;;8374426;28;20240;-74
2022/03/22 07:42:16;;;;;;;15.57;8.10;;;;;5.10;97803.00;;;;8381386;28;20966;-73
2022/03/22 07:46:19;;;;;;;25.20;7.30;;;;;5.20;97803.00;;;;8378675;28;20234;-74
2022/03/22 07:54:44;;;;;;;15.10;7.60;;;;;5.40;97808.00;;;;8369963;28;20228;-72
2022/03/22 07:58:47;;;;;;;16.80;7.40;;;;;5.60;97813.00;;;;8379744;28;20240;-71
2022/03/22 08:02:52;;;;;;;15.33;8.00;;;;;5.80;97811.00;;;;8383675;28;20240;-69
2022/03/22 08:06:57;;;;;;;17.13;8.87;;;;;6.10;97816.00;;;;8379924;28;20248;-72
2022/03/22 08:11:00;;;;;;;13.40;7.70;;;;;6.30;97817.00;;;;8369080;28;20233;-75
2022/03/22 08:15:04;;;;;;;17.67;7.67;;;;;6.60;97815.00;;;;8362933;28;20284;-71
2022/03/22 08:19:07;;;;;;;19.40;7.70;;;;;6.80;97822.00;;;;8380589;28;20219;-73
2022/03/22 08:23:12;;;;;;;15.03;7.27;;;;;6.90;97817.00;;;;8379315;28;20232;-71
2022/03/22 08:27:15;;;;;;;13.37;7.70;;;;;7.20;97818.00;;;;8385055;28;20271;-73
2022/03/22 08:31:18;;;;;;;13.50;7.90;;;;;7.60;97812.00;;;;8382299;28;20832;-69
2022/03/22 08:35:23;;;;;;;14.27;7.20;;;;;7.80;97815.00;;;;8383877;28;20731;-75
2022/03/22 08:39:27;;;;;;;13.97;7.20;;;;;8.10;97817.00;;;;8385242;28;20580;-69
2022/03/22 08:43:31;;;;;;;9.83;6.60;;;;;8.50;97810.00;;;;8383272;28;20224;-73
2022/03/22 08:47:35;;;;;;;11.53;6.40;;;;;9.00;97815.00;;;;8383730;28;20229;-75
2022/03/22 08:51:38;;;;;;;14.17;6.43;;;;;9.60;97818.00;;;;8384089;28;20234;-76
2022/03/22 08:55:44;;;;;;;12.80;6.47;;;;;10.00;97815.00;;;;8383410;28;20252;-74
2022/03/22 08:59:47;;;;;;;10.63;6.23;;;;;10.60;97807.00;;;;8383115;28;20219;-73
2022/03/22 09:06:07;;;;;;;12.37;6.93;;;;;11.00;97811.00;;;;8383275;28;20242;-71
2022/03/22 09:08:13;;;;;;;11.40;6.20;;;;;11.50;97811.00;;;;8382622;28;20277;-73
2022/03/22 09:12:18;;;;;;;14.50;7.60;;;;;11.80;97812.00;;;;8380994;28;20226;-71
2022/03/22 09:16:22;;;;;;;17.00;7.13;;;;;12.10;97809.00;;;;8379490;28;20227;-76
2022/03/22 09:20:29;;;;;;;11.48;6.93;;;;;13.00;97808.00;;;;8370820;28;20232;-73
2022/03/22 09:24:33;;;;;;;16.43;6.50;;;;;13.70;97817.00;;;;8380062;28;20288;-75
2022/03/22 09:28:38;;;;;;;11.75;6.25;;;;;13.90;97811.00;;;;8379707;28;20656;-68
2022/03/22 09:32:43;;;;;;;11.30;6.80;;;;;14.40;97807.00;;;;8375058;28;20228;-73
2022/03/22 09:36:46;;;;;;;11.90;6.30;;;;;14.80;97814.00;;;;8381075;28;20246;-73
2022/03/22 09:40:49;;;;;;;10.77;5.70;;;;;15.20;97805.00;;;;8371732;28;20230;-71
2022/03/22 09:44:54;;;;;;;7.85;5.53;;;;;15.70;97802.00;;;;8378447;28;20615;-70
2022/03/22 09:48:57;;;;;;;8.88;5.78;;;;;15.90;97802.00;;;;8370648;28;20738;-72
2022/03/22 09:53:00;;;;;;;11.77;6.32;;;;;16.10;97797.00;;;;8377408;28;20228;-71
2022/03/22 09:57:04;;;;;;;7.45;5.60;;;;;16.40;97802.00;;;;8371498;28;20258;-71
2022/03/22 10:01:10;;;;;;;11.65;6.13;;;;;16.60;97804.00;;;;8377000;28;20282;-71
2022/03/22 10:05:22;;;;;;;10.05;6.20;;;;;16.60;97795.00;;;;8370944;28;20581;-72
2022/03/22 10:09:30;;;;;;;8.77;4.85;;;;;16.80;97795.00;;;;8376894;28;20915;-69
2022/03/22 10:13:35;;;;;;;13.38;5.88;;;;;16.70;97796.00;;;;8368954;28;20702;-70
2022/03/22 10:17:40;;;;;;;9.38;5.85;;;;;16.80;97787.00;;;;8369160;28;20233;-70
2022/03/22 10:21:44;;;;;;;11.60;5.93;;;;;17.00;97789.00;;;;8376422;28;20222;-68
2022/03/22 10:25:47;;;;;;;10.25;4.82;;;;;16.80;97785.00;;;;8380209;28;20219;-69
2022/03/22 10:29:50;;;;;;;9.52;6.03;;;;;16.40;97774.00;;;;8379446;28;20233;-68
2022/03/22 10:33:55;;;;;;;10.50;5.50;;;;;16.40;97772.00;;;;8373246;28;20223;-69
2022/03/22 10:38:00;;;;;;;10.07;5.38;;;;;16.50;97774.00;;;;8379157;28;20221;-68
2022/03/22 10:42:05;;;;;;;10.48;5.88;;;;;16.00;97760.00;;;;8378406;28;20691;-69
2022/03/22 10:46:12;;;;;;;8.43;5.32;;;;;15.90;97766.00;;;;8379642;28;20234;-69
2022/03/22 10:50:17;;;;;;;6.75;5.05;;;;;15.70;97761.00;;;;8378214;28;20273;-67
2022/03/22 10:54:21;;;;;;;8.88;4.70;;;;;15.70;97759.00;;;;8376723;28;20238;-67
2022/03/22 10:58:26;;;;;;;6.18;4.88;;;;;16.00;97760.00;;;;8377724;28;20266;-69
2022/03/22 11:02:33;;;;;;;12.65;5.13;;;;;15.80;97756.00;;;;8375765;28;20242;-67
2022/03/22 11:06:39;;;;;;;7.93;4.82;;;;;16.30;97753.00;;;;8365962;28;20674;-68
2022/03/22 11:10:42;;;;;;;6.15;4.75;;;;;16.20;97750.00;;;;8373328;28;20777;-66
2022/03/22 11:14:46;;;;;;;6.68;4.65;;;;;15.70;97750.00;;;;8367803;28;20232;-65
2022/03/22 11:18:50;;;;;;;7.50;4.93;;;;;15.70;97745.00;;;;8364205;28;20236;-67
2022/03/22 11:22:56;;;;;;;7.57;5.03;;;;;15.90;97745.00;;;;8360926;28;20235;-66
2022/03/22 11:27:06;;;;;;;7.72;4.70;;;;;15.80;97747.00;;;;8366315;28;20309;-66
2022/03/22 11:31:10;;;;;;;7.93;4.15;;;;;16.20;97736.00;;;;8372841;28;20215;-66
2022/03/22 11:35:14;;;;;;;7.18;4.30;;;;;16.40;97749.00;;;;8376606;28;20231;-67
2022/03/22 11:42:15;;;;;;;4.53;3.92;;;;;16.50;97734.00;;;;8378595;28;20300;-66
2022/03/22 11:43:44;;;;;;;4.20;3.80;;;;;16.70;97741.00;;;;8360689;28;20231;-66
2022/03/22 11:47:49;;;;;;;8.50;4.60;;;;;16.40;97734.00;;;;8377051;28;20230;-65
2022/03/22 11:51:57;;;;;;;5.68;4.55;;;;;16.40;97732.00;;;;8375558;28;20219;-69
2022/03/22 11:56:02;;;;;;;9.25;4.65;;;;;16.40;97727.00;;;;8361795;28;20232;-69
2022/03/22 12:00:06;;;;;;;7.40;4.65;;;;;16.40;97728.00;;;;8381712;28;20224;-68
2022/03/22 12:04:16;;;;;;;7.93;4.63;;;;;16.40;97719.00;;;;8375849;28;20232;-69
2022/03/22 12:08:19;;;;;;;6.10;4.70;;;;;16.50;97719.00;;;;8378473;28;20258;-70
2022/03/22 12:12:24;;;;;;;7.18;4.28;;;;;16.50;97708.00;;;;8380364;28;20234;-66
2022/03/22 12:16:27;;;;;;;8.07;4.50;;;;;16.50;97704.00;;;;8372326;28;20224;-70
2022/03/22 12:20:30;;;;;;;6.05;4.53;;;;;16.50;97710.00;;;;8369689;28;20250;-68
2022/03/22 12:24:35;;;;;;;4.90;4.10;;;;;16.50;97711.00;;;;8370253;28;20227;-72
2022/03/22 12:28:48;;;;;;;7.18;4.00;;;;;16.60;97710.00;;;;8374921;28;20224;-67
2022/03/22 12:32:51;;;;;;;6.18;4.22;;;;;16.50;97693.00;;;;8368352;28;20279;-67
2022/03/22 12:36:55;;;;;;;6.53;4.20;;;;;16.40;97700.00;;;;8372886;28;20315;-69
2022/03/22 12:40:58;;;;;;;5.82;4.20;;;;;16.40;97694.00;;;;8375790;28;20228;-71
2022/03/22 12:50:34;;;;;;;5.80;4.00;;;;;16.20;97683.00;;;;8394321;28;20219;-67
2022/03/22 12:54:39;;;;;;;4.10;3.63;;;;;16.30;97676.00;;;;8395155;28;20220;-67
2022/03/22 12:58:42;;;;;;;7.90;3.97;;;;;16.30;97677.00;;;;8394031;28;20216;-66
2022/03/22 13:02:47;;;;;;;6.88;4.32;;;;;16.50;97666.00;;;;8393792;28;20242;-67
2022/03/22 13:06:57;;;;;;;5.20;3.97;;;;;16.60;97665.00;;;;8395156;28;20306;-67
2022/03/22 13:15:37;;;;;;;3.35;3.03;;;;;16.90;97658.00;;;;8259547;28;20397;-67
2022/03/22 13:20:17;;;;;;;3.45;3.10;;;;;17.00;97661.00;;;;8259868;28;20284;-67
2022/03/22 13:29:54;;;;;;;3.90;3.13;;;;;17.10;97647.00;;;;8393944;28;20227;-64
2022/03/22 13:34:29;;;;;;;3.20;2.90;;;;;17.00;97650.00;;;;8394175;28;20311;-64
2022/03/22 13:38:36;;;;;;;3.40;3.10;;;;;17.00;97641.00;;;;8393910;28;20215;-65
2022/03/22 13:42:55;;;;;;;4.45;2.92;;;;;17.10;97643.00;;;;8393886;28;20227;-65
2022/03/22 13:47:00;;;;;;;5.78;3.30;;;;;17.20;97642.00;;;;8394527;28;20216;-64
2022/03/22 13:51:40;;;;;;;7.65;3.60;;;;;17.20;97638.00;;;;8393712;28;20241;-64
2022/03/22 13:55:45;;;;;;;3.95;3.03;;;;;17.30;97635.00;;;;8394115;28;20220;-65
2022/03/22 14:00:19;;;;;;;6.50;3.45;;;;;17.30;97633.00;;;;8394612;28;20667;-65
2022/03/22 14:09:55;;;;;;;3.50;3.20;;;;;17.90;97626.00;;;;8390375;28;20227;-66
2022/03/22 14:14:29;;;;;;;3.15;2.85;;;;;18.30;97614.00;;;;8393338;28;20636;-66
2022/03/22 14:18:32;;;;;;;6.80;3.88;;;;;18.60;97626.00;;;;8392851;28;20588;-66
2022/03/22 14:23:10;;;;;;;4.03;3.10;;;;;18.80;97612.00;;;;8389722;28;20223;-66
2022/03/22 14:27:49;;;;;;;2.80;2.55;;;;;18.90;97606.00;;;;8394061;28;20614;-66
2022/03/22 14:31:52;;;;;;;5.53;2.75;;;;;19.10;97605.00;;;;8393273;28;20224;-66
2022/03/22 14:36:26;;;;;;;4.28;2.83;;;;;19.20;97595.00;;;;8393350;28;20219;-66
2022/03/22 14:41:22;;;;;;;3.75;2.80;;;;;19.40;97594.00;;;;8393363;28;20577;-66
2022/03/22 14:45:28;;;;;;;3.88;2.60;;;;;19.40;97594.00;;;;8393218;28;20212;-66
2022/03/22 14:50:02;;;;;;;3.20;2.90;;;;;19.30;97594.00;;;;8393409;28;20212;-66
2022/03/22 14:54:04;;;;;;;4.63;2.63;;;;;19.30;97593.00;;;;8393446;28;20532;-66
2022/03/22 15:02:29;;;;;;;2.90;2.63;;;;;19.50;97589.00;;;;8394500;28;20640;-66
2022/03/22 15:07:03;;;;;;;7.32;3.33;;;;;19.60;97582.00;;;;8399086;28;20613;-66
2022/03/22 15:11:41;;;;;;;3.38;3.08;;;;;19.60;97584.00;;;;8399450;28;20549;-67
2022/03/22 15:15:44;;;;;;;4.88;3.00;;;;;19.70;97583.00;;;;8399047;28;20235;-67
2022/03/22 15:20:20;;;;;;;3.97;3.28;;;;;19.60;97580.00;;;;8399309;28;20273;-67
2022/03/22 15:24:25;;;;;;;4.35;3.00;;;;;19.60;97595.00;;;;8397921;28;20690;-67
2022/03/22 15:28:58;;;;;;;33.50;14.15;;;;;19.50;97572.00;;;;8399075;28;20595;-67
2022/03/22 15:33:02;;;;;;;12.18;3.83;;;;;19.40;97576.00;;;;8398716;28;20239;-67
2022/03/22 15:37:36;;;;;;;6.38;5.13;;;;;19.40;97575.00;;;;8398697;28;20542;-67
2022/03/22 15:41:40;;;;;;;4.85;2.92;;;;;19.40;97562.00;;;;8397132;28;20223;-66
2022/03/22 15:46:15;;;;;;;3.88;3.53;;;;;19.40;97572.00;;;;8399194;28;20219;-67
2022/03/22 15:50:27;;;;;;;5.35;3.15;;;;;19.50;97572.00;;;;8397619;28;20220;-67
2022/03/22 15:54:33;;;;;;;8.27;3.70;;;;;19.50;97570.00;;;;8397993;28;20689;-67
2022/03/22 15:59:08;;;;;;;7.22;3.60;;;;;19.40;97569.00;;;;8398109;28;20228;-67
2022/03/22 16:03:11;;;;;;;6.32;3.42;;;;;19.50;97567.00;;;;8397784;28;20243;-67
2022/03/22 16:07:15;;;;;;;7.38;3.38;;;;;19.50;97566.00;;;;8397470;28;20672;-67
2022/03/22 16:11:20;;;;;;;9.10;3.95;;;;;19.60;97566.00;;;;8397553;28;20235;-67
2022/03/22 16:15:55;;;;;;;6.90;4.10;;;;;19.60;97567.00;;;;8397378;28;20307;-66
2022/03/22 16:19:58;;;;;;;11.65;4.15;;;;;19.60;97571.00;;;;8397538;28;20235;-66
2022/03/22 16:24:01;;;;;;;7.30;4.05;;;;;19.40;97568.00;;;;8396879;28;20245;-66
2022/03/22 16:28:04;;;;;;;6.28;4.40;;;;;18.90;97566.00;;;;8395072;28;20223;-66
2022/03/22 16:37:20;;;;;;;6.97;4.28;;;;;17.90;97561.00;;;;8392901;28;20235;-64
2022/03/22 16:41:57;;;;;;;10.13;6.20;;;;;17.50;97559.00;;;;8397575;28;20219;-64
2022/03/22 16:46:34;;;;;;;10.75;6.90;;;;;17.10;97562.00;;;;8395945;28;20212;-64
2022/03/22 16:51:11;;;;;;;9.50;5.18;;;;;16.80;97565.00;;;;8395571;28;20219;-66
2022/03/22 16:55:49;;;;;;;6.20;3.92;;;;;16.50;97569.00;;;;8394794;28;20219;-66
2022/03/22 16:59:55;;;;;;;7.18;4.50;;;;;16.30;97571.00;;;;8395983;28;20234;-65
2022/03/22 17:04:32;;;;;;;6.25;4.70;;;;;15.90;97569.00;;;;8395111;28;20565;-65
2022/03/22 17:08:36;;;;;;;8.27;5.25;;;;;15.60;97574.00;;;;8393603;28;20281;-66
2022/03/22 17:12:40;;;;;;;7.53;5.18;;;;;15.40;97565.00;;;;8395176;28;20574;-65
2022/03/22 17:17:14;;;;;;;6.07;4.50;;;;;15.10;97562.00;;;;8394837;28;20228;-63
2022/03/22 17:21:17;;;;;;;10.20;6.30;;;;;14.90;97566.00;;;;8394416;28;20322;-63
2022/03/22 17:25:51;;;;;;;9.43;6.13;;;;;14.60;97564.00;;;;8394986;28;20663;-64
2022/03/22 17:29:55;;;;;;;11.95;5.18;;;;;14.30;97566.00;;;;8394410;28;20249;-64
2022/03/22 17:33:59;;;;;;;10.30;5.63;;;;;14.10;97567.00;;;;8394773;28;20297;-64
2022/03/22 17:38:02;;;;;;;25.83;8.18;;;;;13.70;97567.00;;;;8394669;28;20237;-64
2022/03/22 17:42:06;;;;;;;12.57;8.63;;;;;13.20;97569.00;;;;8394417;28;20222;-64
2022/03/22 17:46:41;;;;;;;12.60;7.20;;;;;12.50;97565.00;;;;8395080;28;20217;-64
2022/03/22 17:50:44;;;;;;;10.23;6.53;;;;;12.00;97558.00;;;;8393647;28;20252;-64
2022/03/22 17:55:19;;;;;;;9.53;5.93;;;;;11.50;97562.00;;;;8394272;28;20220;-63
2022/03/22 17:59:56;;;;;;;10.43;6.50;;;;;11.10;97560.00;;;;8393902;28;20502;-63
2022/03/22 18:04:00;;;;;;;14.03;7.20;;;;;10.80;97562.00;;;;8394808;28;20220;-64
2022/03/22 18:08:03;;;;;;;13.50;7.53;;;;;10.70;97561.00;;;;8393707;28;20246;-63
2022/03/22 18:12:06;;;;;;;13.03;6.70;;;;;11.00;97566.00;;;;8393782;28;20242;-63
2022/03/22 18:16:40;;;;;;;13.07;6.20;;;;;11.30;97563.00;;;;8394156;28;20224;-63
2022/03/22 18:20:46;;;;;;;10.60;6.83;;;;;11.20;97569.00;;;;8394053;28;20312;-64
2022/03/22 18:25:25;;;;;;;16.05;8.70;;;;;11.10;97567.00;;;;8393664;28;20254;-64
2022/03/22 18:29:58;;;;;;;13.48;7.68;;;;;11.10;97569.00;;;;8394124;28;20219;-64
2022/03/22 18:34:35;;;;;;;14.63;7.97;;;;;10.70;97565.00;;;;8393972;28;20231;-64
2022/03/22 18:39:14;;;;;;;13.17;7.00;;;;;10.20;97573.00;;;;8398214;28;20219;-64
2022/03/22 18:43:17;;;;;;;10.07;6.83;;;;;9.90;97566.00;;;;8394206;28;20224;-63
2022/03/22 18:47:54;;;;;;;18.07;8.63;;;;;9.50;97572.00;;;;8400904;28;20223;-63
2022/03/22 18:52:30;;;;;;;21.40;8.27;;;;;9.20;97566.00;;;;8399763;28;20281;-63
2022/03/22 18:57:09;;;;;;;16.27;7.20;;;;;8.90;97567.00;;;;8399976;28;20227;-63
2022/03/22 19:01:42;;;;;;;20.17;8.10;;;;;8.70;97565.00;;;;8399505;28;20227;-63
2022/03/22 19:06:19;;;;;;;13.13;6.83;;;;;8.50;97569.00;;;;8400201;28;20227;-63
2022/03/22 19:10:55;;;;;;;14.40;6.47;;;;;8.30;97570.00;;;;8397418;28;20559;-63
2022/03/22 19:15:34;;;;;;;12.00;7.37;;;;;8.00;97564.00;;;;8399254;28;20217;-63
2022/03/22 19:20:14;;;;;;;15.90;6.93;;;;;7.50;97567.00;;;;8398659;28;20280;-65
2022/03/22 19:24:50;;;;;;;11.50;7.23;;;;;7.10;97569.00;;;;8399103;28;20226;-65
2022/03/22 19:29:24;;;;;;;16.80;8.13;;;;;6.70;97570.00;;;;8398821;28;20216;-64
2022/03/22 19:34:03;;;;;;;16.20;7.90;;;;;6.40;97570.00;;;;8397732;28;20226;-65
2022/03/22 19:38:10;;;;;;;15.53;8.07;;;;;6.10;97561.00;;;;8398947;28;20656;-65
2022/03/22 19:42:13;;;;;;;20.13;8.57;;;;;5.90;97565.00;;;;8397003;28;20265;-65
2022/03/22 19:46:49;;;;;;;14.47;7.67;;;;;5.70;97563.00;;;;8397488;28;20680;-68
2022/03/22 19:51:28;;;;;;;14.07;7.57;;;;;5.70;97568.00;;;;8397072;28;20220;-68
2022/03/22 19:56:04;;;;;;;22.53;8.40;;;;;5.50;97563.00;;;;8398195;28;20235;-68
2022/03/22 20:00:42;;;;;;;14.23;7.57;;;;;5.30;97563.00;;;;8396802;28;20238;-67
2022/03/22 20:04:45;;;;;;;13.47;7.23;;;;;5.20;97559.00;;;;8397320;28;20230;-68
2022/03/22 20:08:49;;;;;;;18.60;7.97;;;;;5.00;97555.00;;;;8397798;28;20625;-67
2022/03/22 20:13:29;;;;;;;15.00;7.83;;;;;4.80;97564.00;;;;8397328;28;20635;-67
2022/03/22 20:18:04;;;;;;;14.47;7.63;;;;;4.60;97560.00;;;;8396403;28;20227;-66
2022/03/22 20:22:40;;;;;;;18.10;8.63;;;;;4.40;97562.00;;;;8397211;28;20227;-67
2022/03/22 20:27:19;;;;;;;20.70;8.20;;;;;4.20;97558.00;;;;8397530;28;20632;-66
2022/03/22 20:31:23;;;;;;;15.13;7.37;;;;;4.10;97567.00;;;;8396557;28;20223;-66
2022/03/22 20:35:27;;;;;;;31.67;11.70;;;;;4.00;97564.00;;;;8396486;28;20230;-66
2022/03/22 20:39:29;;;;;;;16.43;8.50;;;;;4.00;97574.00;;;;8397069;28;20228;-66
2022/03/22 20:44:07;;;;;;;17.97;8.50;;;;;3.90;97568.00;;;;8396320;28;20220;-66
2022/03/22 20:48:11;;;;;;;16.53;8.00;;;;;3.80;97573.00;;;;8396675;28;20220;-66
2022/03/22 20:52:15;;;;;;;19.90;8.50;;;;;3.70;97574.00;;;;8396433;28;20240;-67
2022/03/22 21:01:27;;;;;;;32.37;15.10;;;;;3.40;97566.00;;;;8395253;28;20549;-67
2022/03/22 21:06:01;;;;;;;29.97;12.80;;;;;3.30;97564.00;;;;8395940;28;20231;-67
2022/03/22 21:10:36;;;;;;;23.40;9.13;;;;;3.20;97572.00;;;;8395478;28;20223;-66
2022/03/22 21:14:39;;;;;;;17.03;8.37;;;;;3.20;97565.00;;;;8395407;28;20235;-65
2022/03/22 21:18:49;;;;;;;18.90;8.73;;;;;3.10;97566.00;;;;8395038;28;20269;-65
2022/03/22 21:22:52;;;;;;;19.17;8.23;;;;;3.00;97566.00;;;;8394836;28;20216;-65
2022/03/22 21:27:28;;;;;;;20.23;9.60;;;;;2.90;97563.00;;;;8394656;28;20214;-65
2022/03/22 21:32:05;;;;;;;23.60;10.53;;;;;2.80;97567.00;;;;8393819;28;20226;-65
2022/03/22 21:36:35;;;;;;;22.97;8.67;;;;;2.60;97559.00;;;;8394179;28;20235;-66
2022/03/22 21:40:40;;;;;;;21.20;10.70;;;;;2.70;97552.00;;;;8394956;28;20548;-66
2022/03/22 21:44:43;;;;;;;23.43;10.40;;;;;2.70;97556.00;;;;8394787;28;20250;-64
2022/03/22 21:49:20;;;;;;;18.77;10.00;;;;;2.70;97556.00;;;;8395203;28;20307;-64
2022/03/22 21:53:58;;;;;;;22.97;10.10;;;;;2.60;97553.00;;;;8394625;28;20252;-64
2022/03/22 21:58:36;;;;;;;20.87;10.50;;;;;2.40;97553.00;;;;8394011;28;20589;-64